createdAt,value
2017-11-24T00:01:36.579Z,92.60
2017-11-24T00:04:06.216Z,92.53
2017-11-24T00:06:34.489Z,92.31
2017-11-24T00:09:02.765Z,92.62
2017-11-24T00:11:31.050Z,92.36
2017-11-24T00:13:59.370Z,91.97
2017-11-24T00:16:28.430Z,92.15
2017-11-24T00:18:56.722Z,91.73
2017-11-24T00:21:25.794Z,91.53
2017-11-24T00:23:54.086Z,91.41
2017-11-24T00:26:22.390Z,91.80
2017-11-24T00:28:50.682Z,91.78
2017-11-24T00:31:18.971Z,91.71
2017-11-24T00:33:47.273Z,91.81
2017-11-24T00:36:15.979Z,91.99
2017-11-24T00:38:44.272Z,91.96
2017-11-24T00:41:12.574Z,92.45
2017-11-24T00:43:40.854Z,92.36
2017-11-24T00:46:09.138Z,92.15
2017-11-24T00:48:37.439Z,93.54
2017-11-24T00:51:05.751Z,92.85
2017-11-24T00:53:34.035Z,92.41
2017-11-24T00:56:02.366Z,92.42
2017-11-24T00:58:30.666Z,92.15
2017-11-24T01:00:58.961Z,91.86
2017-11-24T01:03:27.250Z,91.34
2017-11-24T01:05:56.319Z,91.82
2017-11-24T01:08:24.635Z,92.09
2017-11-24T01:10:52.918Z,92.14
2017-11-24T01:13:21.216Z,92.40
2017-11-24T01:15:49.502Z,92.21
2017-11-24T01:18:17.800Z,92.16
2017-11-24T01:20:46.098Z,92.47
2017-11-24T01:23:14.395Z,92.57
2017-11-24T01:25:42.694Z,92.41
2017-11-24T01:28:10.987Z,92.79
2017-11-24T01:30:39.294Z,92.85
2017-11-24T01:33:07.594Z,92.53
2017-11-24T01:35:35.954Z,92.60
2017-11-24T01:38:05.799Z,92.32
2017-11-24T01:40:34.089Z,91.86
2017-11-24T01:43:02.402Z,92.06
2017-11-24T01:45:30.716Z,91.98
2017-11-24T01:47:59.000Z,91.91
2017-11-24T01:50:27.375Z,92.30
2017-11-24T01:52:55.664Z,92.75
2017-11-24T01:55:23.951Z,92.75
2017-11-24T01:57:52.244Z,93.83
2017-11-24T02:00:20.534Z,93.07
2017-11-24T02:02:48.831Z,93.49
2017-11-24T02:05:17.142Z,93.57
2017-11-24T02:07:46.241Z,94.79
2017-11-24T02:10:14.527Z,94.40
2017-11-24T02:12:42.821Z,94.39
2017-11-24T02:15:11.105Z,94.71
2017-11-24T02:17:39.421Z,93.80
2017-11-24T02:20:07.721Z,93.51
2017-11-24T02:22:36.015Z,93.45
2017-11-24T02:25:04.311Z,94.87
2017-11-24T02:27:32.611Z,94.26
2017-11-24T02:30:01.675Z,94.22
2017-11-24T02:32:29.983Z,94.93
2017-11-24T02:34:58.289Z,94.63
2017-11-24T02:37:26.591Z,94.33
2017-11-24T02:39:54.883Z,94.33
2017-11-24T02:42:23.186Z,94.12
2017-11-24T02:44:51.500Z,94.59
2017-11-24T02:47:19.992Z,95.22
2017-11-24T02:49:48.284Z,94.87
2017-11-24T02:52:16.577Z,94.46
2017-11-24T02:54:44.881Z,94.37
2017-11-24T02:57:13.969Z,94.23
2017-11-24T02:59:42.261Z,93.89
2017-11-24T03:02:11.311Z,93.97
2017-11-24T03:04:39.604Z,93.81
2017-11-24T03:07:07.892Z,94.72
2017-11-24T03:09:36.959Z,96.10
2017-11-24T03:12:05.258Z,95.54
2017-11-24T03:14:33.562Z,95.37
2017-11-24T03:17:01.859Z,96.11
2017-11-24T03:19:30.154Z,95.52
2017-11-24T03:21:58.451Z,95.35
2017-11-24T03:24:26.743Z,94.50
2017-11-24T03:26:57.870Z,93.99
2017-11-24T03:29:26.170Z,95.21
2017-11-24T03:31:55.247Z,94.74
2017-11-24T03:34:23.556Z,95.10
2017-11-24T03:36:52.607Z,95.06
2017-11-24T03:39:20.894Z,95.33
2017-11-24T03:41:49.203Z,96.35
2017-11-24T03:44:17.489Z,96.97
2017-11-24T03:46:46.401Z,97.98
2017-11-24T03:49:14.702Z,98.56
2017-11-24T03:51:42.999Z,99.54
2017-11-24T03:54:12.078Z,99.64
2017-11-24T03:56:41.257Z,100.00
2017-11-24T03:59:09.556Z,100.00
2017-11-24T04:01:39.221Z,100.00
2017-11-24T04:04:07.514Z,100.00
2017-11-24T04:06:35.820Z,100.00
2017-11-24T04:09:04.126Z,100.00
2017-11-24T04:11:32.424Z,100.00
2017-11-24T04:14:00.727Z,100.00
2017-11-24T04:16:29.055Z,100.00
2017-11-24T04:18:57.365Z,100.00
2017-11-24T04:21:26.163Z,100.00
2017-11-24T04:23:54.447Z,100.00
2017-11-24T04:26:22.743Z,100.00
2017-11-24T04:28:51.029Z,100.00
2017-11-24T04:31:19.319Z,100.00
2017-11-24T04:33:48.370Z,99.87
2017-11-24T04:36:16.660Z,99.71
2017-11-24T04:38:44.939Z,99.90
2017-11-24T04:41:13.207Z,99.94
2017-11-24T04:43:41.883Z,99.79
2017-11-24T04:46:10.178Z,99.56
2017-11-24T04:48:38.496Z,99.54
2017-11-24T04:51:06.801Z,98.93
2017-11-24T04:53:35.099Z,99.01
2017-11-24T04:56:03.424Z,98.92
2017-11-24T04:58:32.489Z,98.96
2017-11-24T05:01:00.790Z,99.34
2017-11-24T05:03:29.853Z,98.78
2017-11-24T05:05:58.150Z,98.71
2017-11-24T05:08:27.210Z,98.79
2017-11-24T05:10:55.513Z,98.63
2017-11-24T05:13:23.809Z,98.59
2017-11-24T05:15:52.111Z,98.89
2017-11-24T05:18:21.308Z,99.34
2017-11-24T05:20:49.598Z,99.36
2017-11-24T05:23:17.925Z,99.25
2017-11-24T05:25:46.448Z,99.20
2017-11-24T05:28:14.754Z,99.51
2017-11-24T05:30:43.046Z,99.14
2017-11-24T05:33:11.354Z,99.38
2017-11-24T05:35:39.654Z,99.11
2017-11-24T05:38:07.955Z,98.42
2017-11-24T05:40:36.247Z,98.58
2017-11-24T05:43:04.548Z,98.90
2017-11-24T05:45:32.845Z,98.56
2017-11-24T05:48:01.154Z,98.30
2017-11-24T05:50:29.491Z,98.19
2017-11-24T05:52:57.789Z,98.23
2017-11-24T05:55:26.099Z,98.01
2017-11-24T05:57:54.402Z,98.23
2017-11-24T06:00:23.477Z,97.93
2017-11-24T06:02:51.776Z,98.38
2017-11-24T06:05:20.829Z,97.83
2017-11-24T06:07:49.117Z,98.12
2017-11-24T06:10:17.416Z,97.78
2017-11-24T06:12:45.727Z,97.98
2017-11-24T06:15:14.033Z,97.87
2017-11-24T06:17:42.356Z,97.83
2017-11-24T06:20:11.514Z,97.76
2017-11-24T06:22:39.797Z,97.42
2017-11-24T06:25:09.539Z,97.38
2017-11-24T06:27:37.846Z,97.71
2017-11-24T06:30:06.151Z,97.06
2017-11-24T06:32:34.450Z,97.18
2017-11-24T06:35:02.743Z,97.00
2017-11-24T06:37:31.820Z,97.09
2017-11-24T06:40:00.114Z,97.08
2017-11-24T06:42:29.551Z,96.84
2017-11-24T06:44:57.858Z,97.20
2017-11-24T06:47:26.162Z,97.48
2017-11-24T06:49:54.466Z,97.13
2017-11-24T06:52:22.769Z,96.75
2017-11-24T06:54:51.064Z,96.81
2017-11-24T06:57:19.412Z,96.63
2017-11-24T06:59:47.712Z,96.20
2017-11-24T07:02:16.018Z,97.51
2017-11-24T07:04:44.316Z,97.75
2017-11-24T07:07:13.357Z,97.88
2017-11-24T07:09:41.635Z,98.17
2017-11-24T07:12:09.906Z,98.33
2017-11-24T07:14:38.185Z,98.31
2017-11-24T07:17:06.463Z,98.94
2017-11-24T07:19:34.755Z,99.04
2017-11-24T07:22:03.059Z,98.90
2017-11-24T07:24:32.125Z,98.98
2017-11-24T07:27:00.459Z,99.39
2017-11-24T07:29:28.848Z,99.23
2017-11-24T07:31:57.140Z,99.35
2017-11-24T07:34:25.522Z,98.67
2017-11-24T07:36:53.815Z,98.65
2017-11-24T07:39:22.890Z,98.75
2017-11-24T07:41:51.313Z,98.08
2017-11-24T07:44:19.811Z,98.12
2017-11-24T07:46:48.174Z,98.00
2017-11-24T07:49:16.522Z,98.23
2017-11-24T07:51:44.814Z,97.92
2017-11-24T07:54:13.098Z,98.10
2017-11-24T07:56:41.454Z,97.90
2017-11-24T07:59:09.746Z,97.86
2017-11-24T08:01:38.090Z,98.41
2017-11-24T08:04:06.391Z,97.80
2017-11-24T08:06:34.690Z,98.22
2017-11-24T08:09:03.780Z,98.25
2017-11-24T08:11:32.080Z,97.79
2017-11-24T08:14:02.328Z,98.00
2017-11-24T08:16:30.624Z,98.00
2017-11-24T08:18:58.916Z,97.99
2017-11-24T08:21:27.212Z,97.93
2017-11-24T08:23:55.506Z,97.83
2017-11-24T08:26:24.558Z,97.49
2017-11-24T08:28:52.884Z,97.42
2017-11-24T08:31:21.183Z,97.09
2017-11-24T08:33:49.556Z,96.89
2017-11-24T08:36:17.838Z,96.91
2017-11-24T08:38:46.141Z,96.75
2017-11-24T08:41:14.451Z,97.18
2017-11-24T08:43:43.558Z,96.97
2017-11-24T08:46:11.859Z,96.86
2017-11-24T08:48:45.575Z,96.35
2017-11-24T08:51:13.861Z,96.40
2017-11-24T08:53:42.186Z,96.40
2017-11-24T08:56:11.254Z,96.43
2017-11-24T08:58:39.573Z,96.51
2017-11-24T09:01:07.877Z,96.69
2017-11-24T09:03:36.175Z,96.66
2017-11-24T09:06:04.484Z,96.35
2017-11-24T09:08:32.783Z,96.12
2017-11-24T09:11:01.085Z,96.15
2017-11-24T09:13:29.369Z,95.94
2017-11-24T09:15:57.692Z,96.39
2017-11-24T09:18:25.987Z,96.08
2017-11-24T09:20:54.282Z,95.82
2017-11-24T09:23:22.567Z,95.29
2017-11-24T09:25:50.911Z,95.60
2017-11-24T09:28:19.241Z,94.87
2017-11-24T09:30:47.582Z,94.44
2017-11-24T09:33:15.877Z,94.45
2017-11-24T09:35:44.234Z,95.04
2017-11-24T09:38:13.651Z,94.83
2017-11-24T09:40:41.945Z,95.05
2017-11-24T09:43:10.216Z,95.33
2017-11-24T09:45:38.548Z,94.76
2017-11-24T09:48:06.924Z,94.59
2017-11-24T09:50:35.308Z,94.10
2017-11-24T09:53:04.161Z,93.94
2017-11-24T09:55:32.483Z,93.80
2017-11-24T09:58:01.361Z,93.73
2017-11-24T10:00:30.601Z,93.77
2017-11-24T10:02:58.903Z,94.46
2017-11-24T10:05:28.575Z,94.60
2017-11-24T10:07:56.870Z,94.08
2017-11-24T10:10:25.181Z,94.75
2017-11-24T10:12:53.488Z,95.03
2017-11-24T10:15:23.744Z,95.75
2017-11-24T10:17:52.123Z,95.78
2017-11-24T10:20:20.423Z,95.19
2017-11-24T10:22:48.718Z,95.29
2017-11-24T10:25:17.029Z,95.16
2017-11-24T10:27:45.315Z,95.83
2017-11-24T10:30:13.615Z,95.93
2017-11-24T10:32:41.936Z,95.42
2017-11-24T10:35:10.976Z,94.74
2017-11-24T10:37:39.293Z,95.27
2017-11-24T10:40:07.591Z,94.60
2017-11-24T10:42:35.929Z,94.33
2017-11-24T10:45:04.227Z,94.72
2017-11-24T10:47:32.522Z,94.83
2017-11-24T10:50:00.819Z,94.61
2017-11-24T10:52:29.118Z,96.36
2017-11-24T10:54:57.414Z,98.77
2017-11-24T10:57:25.778Z,100.00
2017-11-24T10:59:54.131Z,98.00
2017-11-24T11:02:22.422Z,98.54
2017-11-24T11:04:50.743Z,99.49
2017-11-24T11:07:19.030Z,99.59
2017-11-24T11:09:47.343Z,99.15
2017-11-24T11:12:15.626Z,99.05
2017-11-24T11:14:43.950Z,99.65
2017-11-24T11:17:12.259Z,99.58
2017-11-24T11:19:40.645Z,98.66
2017-11-24T11:22:08.926Z,98.27
2017-11-24T11:24:37.209Z,98.02
2017-11-24T11:27:06.089Z,98.22
2017-11-24T11:29:34.374Z,96.47
2017-11-24T11:32:02.658Z,95.96
2017-11-24T11:34:30.977Z,95.74
2017-11-24T11:36:59.298Z,96.29
2017-11-24T11:39:27.751Z,96.00
2017-11-24T11:41:56.043Z,95.08
2017-11-24T11:44:24.347Z,94.56
2017-11-24T11:46:52.662Z,94.19
2017-11-24T11:49:21.723Z,93.88
2017-11-24T11:51:50.022Z,93.43
2017-11-24T11:54:18.318Z,93.77
2017-11-24T11:56:47.470Z,93.48
2017-11-24T11:59:15.878Z,93.30
2017-11-24T12:01:44.161Z,92.59
2017-11-24T12:04:13.243Z,92.85
2017-11-24T12:06:42.503Z,94.09
2017-11-24T12:09:11.654Z,94.72
2017-11-24T12:11:39.971Z,93.85
2017-11-24T12:14:08.263Z,93.72
2017-11-24T12:16:36.573Z,93.36
2017-11-24T12:19:04.874Z,92.45
2017-11-24T12:21:33.166Z,91.58
2017-11-24T12:24:01.477Z,91.02
2017-11-24T12:26:29.829Z,91.40
2017-11-24T12:28:58.209Z,91.34
2017-11-24T12:31:26.535Z,90.43
2017-11-24T12:33:54.858Z,90.45
2017-11-24T12:36:23.178Z,90.10
2017-11-24T12:38:51.482Z,90.04
2017-11-24T12:41:19.771Z,90.07
2017-11-24T12:43:48.842Z,90.12
2017-11-24T12:46:17.152Z,90.07
2017-11-24T12:48:45.449Z,89.82
2017-11-24T12:51:13.820Z,89.84
2017-11-24T12:53:42.122Z,89.16
2017-11-24T12:56:10.441Z,89.26
2017-11-24T12:58:38.961Z,88.87
2017-11-24T13:01:07.556Z,88.69
2017-11-24T13:03:35.942Z,88.36
2017-11-24T13:06:04.290Z,88.69
2017-11-24T13:08:32.644Z,89.36
2017-11-24T13:11:00.985Z,89.79
2017-11-24T13:13:29.641Z,89.40
2017-11-24T13:15:58.034Z,89.89
2017-11-24T13:18:26.686Z,89.70
2017-11-24T13:20:54.995Z,89.57
2017-11-24T13:23:23.501Z,90.47
2017-11-24T13:25:52.056Z,91.34
2017-11-24T13:28:20.555Z,91.87
2017-11-24T13:30:48.839Z,91.72
2017-11-24T13:33:17.178Z,91.79
2017-11-24T13:35:45.486Z,90.96
2017-11-24T13:38:13.791Z,90.96
2017-11-24T13:40:42.754Z,89.34
2017-11-24T13:43:11.041Z,88.78
2017-11-24T13:45:39.343Z,88.92
2017-11-24T13:48:07.633Z,88.67
2017-11-24T13:50:43.777Z,88.52
2017-11-24T13:53:16.439Z,88.90
2017-11-24T13:55:44.752Z,88.70
2017-11-24T13:58:13.039Z,87.93
2017-11-24T14:00:41.355Z,87.43
2017-11-24T14:03:09.662Z,88.50
2017-11-24T14:05:37.986Z,88.86
2017-11-24T14:08:06.284Z,89.84
2017-11-24T14:10:34.580Z,91.25
2017-11-24T14:13:02.874Z,91.51
2017-11-24T14:15:31.174Z,91.93
2017-11-24T14:17:59.479Z,92.31
2017-11-24T14:20:27.762Z,92.73
2017-11-24T14:22:56.072Z,93.15
2017-11-24T14:25:24.370Z,93.03
2017-11-24T14:27:52.699Z,92.83
2017-11-24T14:30:21.003Z,93.48
2017-11-24T14:32:50.050Z,92.57
2017-11-24T14:35:18.330Z,93.70
2017-11-24T14:37:46.618Z,93.53
2017-11-24T14:40:14.918Z,94.45
2017-11-24T14:42:43.216Z,94.70
2017-11-24T14:45:11.510Z,94.25
2017-11-24T14:47:39.810Z,93.83
2017-11-24T14:50:08.806Z,94.58
2017-11-24T14:52:37.103Z,94.36
2017-11-24T14:55:05.404Z,93.92
2017-11-24T14:57:34.453Z,93.08
2017-11-24T15:00:02.775Z,93.56
2017-11-24T15:02:31.070Z,93.78
2017-11-24T15:04:59.373Z,93.47
2017-11-24T15:07:27.658Z,93.68
2017-11-24T15:09:55.951Z,93.51
2017-11-24T15:12:24.231Z,93.31
2017-11-24T15:14:52.506Z,92.33
2017-11-24T15:17:20.789Z,91.15
2017-11-24T15:19:49.082Z,90.90
2017-11-24T15:22:17.373Z,90.74
2017-11-24T15:24:47.238Z,89.75
2017-11-24T15:27:15.531Z,89.64
2017-11-24T15:29:43.830Z,89.23
2017-11-24T15:32:12.112Z,89.49
2017-11-24T15:34:41.185Z,89.07
2017-11-24T15:37:09.461Z,88.87
2017-11-24T15:39:37.749Z,88.70
2017-11-24T15:42:06.029Z,88.46
2017-11-24T15:44:34.350Z,88.50
2017-11-24T15:47:02.651Z,89.40
2017-11-24T15:49:30.914Z,89.13
2017-11-24T15:51:59.212Z,89.95
2017-11-24T15:54:27.476Z,89.43
2017-11-24T15:56:55.782Z,89.55
2017-11-24T15:59:24.057Z,89.62
2017-11-24T16:01:53.109Z,90.01
2017-11-24T16:04:24.181Z,90.45
2017-11-24T16:06:52.523Z,90.85
2017-11-24T16:09:20.814Z,92.05
2017-11-24T16:11:49.111Z,91.25
2017-11-24T16:14:17.400Z,90.05
2017-11-24T16:16:47.586Z,89.88
2017-11-24T16:19:15.870Z,90.63
2017-11-24T16:21:44.187Z,92.06
2017-11-24T16:24:13.246Z,91.95
2017-11-24T16:26:42.645Z,92.35
2017-11-24T16:29:10.956Z,92.76
2017-11-24T16:31:39.240Z,93.85
2017-11-24T16:34:07.549Z,93.40
2017-11-24T16:36:35.829Z,92.94
2017-11-24T16:39:04.117Z,93.50
2017-11-24T16:41:32.400Z,92.69
2017-11-24T16:44:00.678Z,92.11
2017-11-24T16:46:28.968Z,91.50
2017-11-24T16:48:57.271Z,91.42
2017-11-24T16:51:26.323Z,91.42
2017-11-24T16:53:54.639Z,90.97
2017-11-24T16:56:23.686Z,91.15
2017-11-24T16:58:52.905Z,91.22
2017-11-24T17:01:21.179Z,91.67
2017-11-24T17:03:49.463Z,92.27
2017-11-24T17:06:17.746Z,92.00
2017-11-24T17:08:46.033Z,91.63
2017-11-24T17:11:15.093Z,90.51
2017-11-24T17:13:43.387Z,89.90
2017-11-24T17:16:11.686Z,89.82
2017-11-24T17:18:40.834Z,90.26
2017-11-24T17:21:09.127Z,89.98
2017-11-24T17:23:37.427Z,90.56
2017-11-24T17:26:05.721Z,89.71
2017-11-24T17:28:34.779Z,89.85
2017-11-24T17:31:03.083Z,89.76
2017-11-24T17:33:32.153Z,90.24
2017-11-24T17:36:00.446Z,92.53
2017-11-24T17:38:29.491Z,92.39
2017-11-24T17:40:57.842Z,93.91
2017-11-24T17:43:26.149Z,95.54
2017-11-24T17:45:54.436Z,95.48
2017-11-24T17:48:22.713Z,94.87
2017-11-24T17:50:51.345Z,93.31
2017-11-24T17:53:20.412Z,92.82
2017-11-24T17:55:48.706Z,92.64
2017-11-24T17:58:17.769Z,92.34
2017-11-24T18:00:46.098Z,92.08
2017-11-24T18:03:14.390Z,91.71
2017-11-24T18:05:42.672Z,92.04
2017-11-24T18:08:10.987Z,91.75
2017-11-24T18:10:39.301Z,91.50
2017-11-24T18:13:07.608Z,91.30
2017-11-24T18:15:35.900Z,90.89
2017-11-24T18:18:04.190Z,90.90
2017-11-24T18:20:32.516Z,91.58
2017-11-24T18:23:00.880Z,92.37
2017-11-24T18:25:29.212Z,92.10
2017-11-24T18:27:57.661Z,92.17
2017-11-24T18:30:25.967Z,92.25
2017-11-24T18:32:54.288Z,91.80
2017-11-24T18:35:22.627Z,91.20
2017-11-24T18:37:50.977Z,94.10
2017-11-24T18:40:19.303Z,93.81
2017-11-24T18:42:47.742Z,92.60
2017-11-24T18:45:16.052Z,92.39
2017-11-24T18:47:44.381Z,92.36
2017-11-24T18:50:12.728Z,93.00
2017-11-24T18:52:41.964Z,92.94
2017-11-24T18:55:10.643Z,92.51
2017-11-24T18:57:38.971Z,92.07
2017-11-24T19:00:07.468Z,92.14
2017-11-24T19:02:35.860Z,92.12
2017-11-24T19:05:04.310Z,91.89
2017-11-24T19:07:32.708Z,91.64
2017-11-24T19:10:01.140Z,94.73
2017-11-24T19:12:29.702Z,100.00
2017-11-24T19:14:58.287Z,100.00
2017-11-24T19:17:27.310Z,100.00
2017-11-24T19:19:57.262Z,100.00
2017-11-24T19:22:26.521Z,98.75
2017-11-24T19:24:55.491Z,98.19
2017-11-24T19:27:25.035Z,97.13
2017-11-24T19:29:54.748Z,96.21
2017-11-24T19:32:24.738Z,96.25
2017-11-24T19:34:54.656Z,97.10
2017-11-24T19:37:24.632Z,98.15
2017-11-24T19:39:54.498Z,97.29
2017-11-24T19:42:24.415Z,97.75
2017-11-24T19:44:54.290Z,96.80
2017-11-24T19:47:24.179Z,96.07
2017-11-24T19:49:54.080Z,95.49
2017-11-24T19:52:25.169Z,95.20
2017-11-24T19:54:54.976Z,94.50
2017-11-24T19:57:24.923Z,94.00
2017-11-24T19:59:54.776Z,94.17
2017-11-24T20:02:24.616Z,93.67
2017-11-24T20:04:54.509Z,93.49
2017-11-24T20:07:24.466Z,93.21
2017-11-24T20:09:54.299Z,92.84
2017-11-24T20:12:24.338Z,92.73
2017-11-24T20:14:54.225Z,92.51
2017-11-24T20:17:24.874Z,92.60
2017-11-24T20:19:54.863Z,92.04
2017-11-24T20:22:24.721Z,92.40
2017-11-24T20:24:54.482Z,92.94
2017-11-24T20:27:24.315Z,93.03
2017-11-24T20:29:54.240Z,92.77
2017-11-24T20:32:24.113Z,92.67
2017-11-24T20:34:53.911Z,92.35
2017-11-24T20:37:23.727Z,92.46
2017-11-24T20:39:53.599Z,92.38
2017-11-24T20:42:23.400Z,92.56
2017-11-24T20:44:53.445Z,93.25
2017-11-24T20:47:23.281Z,93.46
2017-11-24T20:49:53.118Z,93.47
2017-11-24T20:52:22.867Z,93.54
2017-11-24T20:54:54.081Z,93.28
2017-11-24T20:57:23.918Z,93.21
2017-11-24T20:59:53.746Z,93.15
2017-11-24T21:02:24.404Z,93.66
2017-11-24T21:04:54.237Z,93.50
2017-11-24T21:07:24.072Z,94.46
2017-11-24T21:09:53.984Z,94.59
2017-11-24T21:12:23.925Z,94.11
2017-11-24T21:14:53.896Z,94.02
2017-11-24T21:17:23.759Z,94.55
2017-11-24T21:19:53.515Z,94.72
2017-11-24T21:22:23.310Z,94.59
2017-11-24T21:24:53.840Z,94.85
2017-11-24T21:27:24.395Z,94.62
2017-11-24T21:29:54.334Z,95.17
2017-11-24T21:32:24.152Z,94.82
2017-11-24T21:34:53.917Z,94.12
2017-11-24T21:37:24.180Z,94.45
2017-11-24T21:39:55.778Z,94.17
2017-11-24T21:42:25.469Z,94.51
2017-11-24T21:44:55.861Z,93.89
2017-11-24T21:47:30.620Z,93.89
2017-11-24T21:49:59.285Z,93.33
2017-11-24T21:52:28.210Z,93.12
2017-11-24T21:54:56.702Z,93.66
2017-11-24T21:57:25.148Z,93.80
2017-11-24T21:59:53.860Z,93.58
2017-11-24T22:02:22.328Z,94.06
2017-11-24T22:04:50.959Z,93.50
2017-11-24T22:07:19.756Z,93.10
2017-11-24T22:09:48.277Z,93.64
2017-11-24T22:12:16.605Z,93.12
2017-11-24T22:14:44.925Z,93.82
2017-11-24T22:17:13.997Z,93.49
2017-11-24T22:19:42.320Z,92.80
2017-11-24T22:22:10.622Z,93.13
2017-11-24T22:24:38.917Z,92.84
2017-11-24T22:27:07.215Z,93.30
2017-11-24T22:29:35.507Z,94.47
2017-11-24T22:32:04.551Z,94.06
2017-11-24T22:34:32.826Z,93.32
2017-11-24T22:37:01.101Z,93.34
2017-11-24T22:39:29.441Z,93.14
2017-11-24T22:41:57.736Z,93.39
2017-11-24T22:44:26.029Z,93.92
2017-11-24T22:46:54.309Z,94.09
2017-11-24T22:49:22.590Z,94.11
2017-11-24T22:51:50.860Z,93.37
2017-11-24T22:54:19.141Z,93.26
2017-11-24T22:56:48.177Z,93.22
2017-11-24T22:59:17.235Z,93.61
2017-11-24T23:01:45.530Z,93.47
2017-11-24T23:04:13.822Z,93.70
2017-11-24T23:06:43.466Z,93.32
2017-11-24T23:09:11.770Z,93.08
2017-11-24T23:11:40.054Z,93.33
2017-11-24T23:14:08.350Z,93.50
2017-11-24T23:16:36.633Z,94.65
2017-11-24T23:19:04.918Z,94.86
2017-11-24T23:21:33.974Z,94.50
2017-11-24T23:24:02.286Z,94.61
2017-11-24T23:26:30.606Z,94.70
2017-11-24T23:28:58.898Z,95.59
2017-11-24T23:31:27.183Z,96.08
2017-11-24T23:33:55.466Z,96.48
2017-11-24T23:36:23.762Z,96.07
2017-11-24T23:38:52.790Z,95.14
2017-11-24T23:41:21.079Z,95.33
2017-11-24T23:43:49.359Z,94.85
2017-11-24T23:46:17.638Z,94.36
2017-11-24T23:48:45.921Z,94.58
2017-11-24T23:51:14.203Z,95.24
2017-11-24T23:53:42.486Z,96.21
2017-11-24T23:56:10.771Z,96.03
2017-11-24T23:58:39.050Z,95.32
